createdAt,value
2023-03-02T00:00:50.043Z,76.02
2023-03-02T00:04:55.929Z,75.27
2023-03-02T00:09:02.081Z,75.32
2023-03-02T00:13:07.674Z,75.25
2023-03-02T00:17:11.460Z,75.10
2023-03-02T00:21:12.232Z,75.41
2023-03-02T00:25:14.277Z,74.91
2023-03-02T00:29:15.092Z,75.09
2023-03-02T00:33:18.468Z,74.63
2023-03-02T00:37:19.434Z,74.92
2023-03-02T00:41:21.723Z,74.89
2023-03-02T00:45:22.291Z,74.57
2023-03-02T00:49:26.090Z,74.60
2023-03-02T00:53:26.528Z,74.94
2023-03-02T00:57:27.887Z,75.06
2023-03-02T01:01:29.920Z,74.81
2023-03-02T01:05:33.420Z,75.43
2023-03-02T01:09:34.764Z,74.70
2023-03-02T01:13:36.440Z,74.61
2023-03-02T01:17:38.180Z,75.05
2023-03-02T01:21:41.761Z,75.19
2023-03-02T01:25:42.158Z,75.08
2023-03-02T01:29:42.813Z,75.30
2023-03-02T01:33:43.443Z,75.22
2023-03-02T01:37:50.383Z,76.29
2023-03-02T01:41:52.493Z,76.15
2023-03-02T01:45:57.789Z,76.02
2023-03-02T01:50:30.344Z,75.59
2023-03-02T01:54:35.956Z,75.78
2023-03-02T01:58:40.835Z,75.51
2023-03-02T02:02:42.614Z,77.47
2023-03-02T02:06:50.120Z,78.33
2023-03-02T02:10:54.762Z,79.88
2023-03-02T02:15:01.067Z,79.87
2023-03-02T02:19:02.144Z,80.47
2023-03-02T02:23:20.183Z,80.04
2023-03-02T02:27:30.419Z,80.29
2023-03-02T02:31:39.061Z,80.71
2023-03-02T02:35:42.749Z,81.63
2023-03-02T02:39:50.110Z,82.62
2023-03-02T02:43:55.837Z,82.37
2023-03-02T02:47:59.100Z,80.99
2023-03-02T02:52:03.890Z,81.04
2023-03-02T02:56:10.268Z,80.74
2023-03-02T03:00:26.825Z,81.55
2023-03-02T03:04:33.106Z,82.52
2023-03-02T03:09:03.905Z,82.78
2023-03-02T03:13:15.843Z,82.05
2023-03-02T03:17:19.165Z,82.04
2023-03-02T03:21:25.806Z,82.72
2023-03-02T03:25:29.952Z,82.04
2023-03-02T03:29:33.642Z,80.93
2023-03-02T03:33:39.353Z,81.18
2023-03-02T03:37:41.976Z,81.35
2023-03-02T03:41:45.024Z,81.88
2023-03-02T03:45:48.807Z,80.97
2023-03-02T03:49:52.466Z,80.93
2023-03-02T03:54:03.144Z,80.29
2023-03-02T03:58:09.780Z,80.72
2023-03-02T04:02:12.522Z,80.26
2023-03-02T04:06:19.050Z,80.10
2023-03-02T04:10:22.536Z,80.36
2023-03-02T04:14:27.928Z,80.39
2023-03-02T04:18:31.867Z,79.77
2023-03-02T04:22:35.204Z,80.27
2023-03-02T04:26:38.871Z,80.17
2023-03-02T04:30:40.253Z,80.14
2023-03-02T04:34:44.296Z,79.59
2023-03-02T04:38:49.081Z,79.07
2023-03-02T04:42:50.750Z,78.33
2023-03-02T04:46:53.011Z,78.34
2023-03-02T04:50:53.758Z,78.24
2023-03-02T04:54:57.852Z,77.69
2023-03-02T04:58:59.636Z,77.51
2023-03-02T05:03:00.424Z,77.54
2023-03-02T05:07:02.840Z,77.62
2023-03-02T05:11:07.979Z,77.40
2023-03-02T05:15:12.731Z,78.46
2023-03-02T05:19:16.929Z,77.88
2023-03-02T05:23:25.304Z,77.57
2023-03-02T05:27:28.928Z,77.60
2023-03-02T05:31:35.348Z,77.61
2023-03-02T05:35:36.028Z,77.58
2023-03-02T05:39:39.658Z,77.59
2023-03-02T05:43:43.764Z,77.98
2023-03-02T05:47:46.788Z,78.83
2023-03-02T05:51:47.733Z,79.72
2023-03-02T05:55:51.741Z,79.54
2023-03-02T05:59:55.225Z,79.81
2023-03-02T06:03:55.765Z,79.28
2023-03-02T06:07:56.363Z,79.08
2023-03-02T06:11:56.626Z,78.85
2023-03-02T06:15:59.893Z,79.80
2023-03-02T06:20:00.451Z,80.87
2023-03-02T06:24:00.863Z,80.87
2023-03-02T06:28:01.867Z,80.07
2023-03-02T06:32:05.174Z,80.39
2023-03-02T06:36:06.334Z,80.03
2023-03-02T06:40:11.704Z,79.55
2023-03-02T06:44:12.397Z,79.02
2023-03-02T06:48:18.487Z,78.50
2023-03-02T06:52:19.298Z,77.46
2023-03-02T06:56:20.031Z,76.59
2023-03-02T07:00:28.420Z,76.37
2023-03-02T07:04:31.926Z,74.24
2023-03-02T07:08:32.471Z,73.69
2023-03-02T07:12:33.451Z,71.90
2023-03-02T07:16:33.967Z,70.45
2023-03-02T07:20:38.454Z,69.33
2023-03-02T07:24:38.787Z,67.67
2023-03-02T07:28:40.358Z,67.24
2023-03-02T07:32:42.985Z,66.44
2023-03-02T07:36:47.776Z,64.99
2023-03-02T07:40:48.549Z,64.22
2023-03-02T07:44:49.057Z,63.27
2023-03-02T07:48:49.718Z,62.26
2023-03-02T07:52:55.597Z,61.67
2023-03-02T07:56:56.075Z,61.73
2023-03-02T08:00:57.864Z,59.76
2023-03-02T08:05:00.082Z,58.93
2023-03-02T08:09:09.108Z,57.77
2023-03-02T08:13:11.597Z,57.17
2023-03-02T08:17:14.628Z,57.17
2023-03-02T08:21:19.183Z,56.42
2023-03-02T08:25:23.021Z,54.87
2023-03-02T08:29:24.785Z,54.64
2023-03-02T08:33:25.178Z,54.73
2023-03-02T08:37:27.791Z,54.91
2023-03-02T08:41:35.357Z,53.83
2023-03-02T08:45:38.187Z,53.95
2023-03-02T08:49:39.834Z,53.63
2023-03-02T08:53:43.867Z,53.14
2023-03-02T08:57:47.879Z,52.91
2023-03-02T09:01:48.633Z,52.84
2023-03-02T09:05:49.534Z,52.32
2023-03-02T09:09:50.135Z,52.85
2023-03-02T09:13:56.952Z,52.41
2023-03-02T09:17:58.026Z,51.83
2023-03-02T09:21:58.714Z,52.39
2023-03-02T09:25:59.881Z,52.28
2023-03-02T09:30:03.362Z,51.75
2023-03-02T09:34:04.524Z,51.22
2023-03-02T09:38:05.053Z,49.37
2023-03-02T09:42:53.686Z,48.70
2023-03-02T09:47:04.434Z,48.68
2023-03-02T09:51:31.421Z,48.05
2023-03-02T09:55:38.188Z,48.03
2023-03-02T09:59:47.850Z,48.39
2023-03-02T10:04:20.765Z,46.90
2023-03-02T10:08:27.328Z,45.76
2023-03-02T10:12:56.791Z,45.36
2023-03-02T10:17:19.078Z,44.71
2023-03-02T10:21:33.019Z,45.24
2023-03-02T10:25:47.713Z,44.45
2023-03-02T10:30:01.800Z,43.46
2023-03-02T10:34:04.513Z,42.30
2023-03-02T10:38:19.495Z,42.30
2023-03-02T10:42:25.830Z,41.82
2023-03-02T10:46:26.607Z,42.01
2023-03-02T10:50:30.999Z,40.83
2023-03-02T10:54:41.470Z,40.37
2023-03-02T10:58:43.956Z,38.11
2023-03-02T11:02:53.676Z,37.18
2023-03-02T11:06:56.016Z,36.93
2023-03-02T11:11:04.947Z,36.45
2023-03-02T11:15:25.428Z,35.39
2023-03-02T11:19:37.709Z,34.88
2023-03-02T11:23:56.485Z,35.07
2023-03-02T11:28:10.274Z,33.30
2023-03-02T11:32:23.213Z,34.68
2023-03-02T11:36:38.621Z,35.00
2023-03-02T11:40:49.856Z,33.71
2023-03-02T11:44:56.664Z,32.18
2023-03-02T11:49:03.550Z,31.87
2023-03-02T11:53:11.243Z,32.70
2023-03-02T11:57:28.401Z,33.29
2023-03-02T12:01:40.984Z,33.07
2023-03-02T12:05:44.918Z,32.77
2023-03-02T12:09:48.254Z,33.77
2023-03-02T12:14:03.274Z,33.51
2023-03-02T12:18:33.030Z,32.77
2023-03-02T12:22:36.046Z,33.15
2023-03-02T12:26:40.920Z,31.98
2023-03-02T12:30:49.365Z,30.19
2023-03-02T12:34:59.837Z,30.89
2023-03-02T12:39:24.361Z,30.61
2023-03-02T12:43:37.247Z,30.92
2023-03-02T12:47:39.561Z,31.35
2023-03-02T12:51:57.330Z,31.85
2023-03-02T12:56:00.447Z,32.59
2023-03-02T13:00:05.034Z,31.43
2023-03-02T13:04:05.650Z,31.66
2023-03-02T13:08:18.801Z,30.13
2023-03-02T13:12:21.426Z,30.77
2023-03-02T13:16:26.766Z,30.78
2023-03-02T13:20:31.660Z,30.54
2023-03-02T13:24:52.419Z,30.77
2023-03-02T13:29:05.970Z,30.54
2023-03-02T13:33:23.452Z,32.01
2023-03-02T13:37:39.425Z,32.08
2023-03-02T13:41:42.935Z,29.22
2023-03-02T13:45:43.488Z,29.24
2023-03-02T13:49:45.754Z,28.56
2023-03-02T13:53:54.743Z,28.78
2023-03-02T13:57:59.308Z,28.75
2023-03-02T14:02:01.285Z,30.23
2023-03-02T14:06:03.168Z,32.38
2023-03-02T14:10:03.831Z,33.52
2023-03-02T14:14:10.615Z,33.24
2023-03-02T14:18:31.740Z,32.64
2023-03-02T14:22:35.729Z,32.13
2023-03-02T14:26:41.393Z,32.31
2023-03-02T14:30:45.259Z,33.07
2023-03-02T14:34:47.030Z,32.63
2023-03-02T14:38:48.583Z,32.84
2023-03-02T14:42:54.398Z,32.33
2023-03-02T14:46:58.773Z,34.26
2023-03-02T14:51:03.517Z,34.39
2023-03-02T14:55:09.152Z,35.09
2023-03-02T14:59:12.665Z,34.95
2023-03-02T15:03:19.527Z,34.79
2023-03-02T15:07:21.504Z,35.28
2023-03-02T15:11:22.356Z,34.77
2023-03-02T15:15:27.750Z,35.00
2023-03-02T15:19:31.138Z,34.65
2023-03-02T15:23:32.802Z,33.66
2023-03-02T15:27:33.631Z,33.75
2023-03-02T15:31:35.088Z,33.89
2023-03-02T15:35:44.645Z,34.19
2023-03-02T15:39:45.231Z,34.60
2023-03-02T15:43:48.560Z,34.67
2023-03-02T15:47:49.416Z,33.63
2023-03-02T15:51:54.555Z,33.52
2023-03-02T15:55:55.248Z,34.65
2023-03-02T15:59:58.615Z,34.65
2023-03-02T16:04:04.826Z,34.78
2023-03-02T16:08:10.958Z,35.86
2023-03-02T16:12:11.564Z,37.30
2023-03-02T16:16:15.410Z,38.72
2023-03-02T16:20:16.640Z,39.39
2023-03-02T16:24:20.262Z,41.74
2023-03-02T16:28:24.003Z,42.43
2023-03-02T16:32:27.293Z,43.06
2023-03-02T16:36:30.144Z,43.73
2023-03-02T16:40:34.052Z,44.47
2023-03-02T16:44:34.616Z,45.71
2023-03-02T16:48:36.072Z,46.26
2023-03-02T16:52:36.765Z,47.48
2023-03-02T16:56:41.439Z,48.91
2023-03-02T17:00:42.754Z,49.52
2023-03-02T17:04:43.257Z,49.65
2023-03-02T17:08:43.786Z,50.33
2023-03-02T17:12:47.174Z,51.50
2023-03-02T17:16:47.834Z,52.02
2023-03-02T17:20:48.448Z,53.29
2023-03-02T17:24:48.901Z,54.31
2023-03-02T17:28:52.552Z,55.16
2023-03-02T17:32:54.132Z,55.57
2023-03-02T17:36:54.446Z,56.83
2023-03-02T17:40:54.649Z,57.00
2023-03-02T17:44:57.765Z,58.40
2023-03-02T17:49:01.769Z,59.23
2023-03-02T17:53:03.154Z,60.05
2023-03-02T17:57:04.266Z,59.98
2023-03-02T18:01:08.818Z,60.51
2023-03-02T18:05:12.865Z,61.21
2023-03-02T18:09:13.556Z,61.76
2023-03-02T18:13:16.335Z,62.47
2023-03-02T18:17:20.891Z,63.02
2023-03-02T18:21:22.865Z,63.37
2023-03-02T18:25:23.524Z,63.78
2023-03-02T18:29:24.314Z,63.79
2023-03-02T18:33:27.724Z,64.36
2023-03-02T18:37:28.669Z,64.36
2023-03-02T18:41:30.398Z,65.33
2023-03-02T18:45:34.847Z,65.60
2023-03-02T18:49:38.536Z,66.46
2023-03-02T18:53:39.664Z,66.38
2023-03-02T18:57:40.831Z,66.02
2023-03-02T19:01:41.430Z,66.29
2023-03-02T19:05:45.915Z,66.68
2023-03-02T19:09:46.516Z,66.95
2023-03-02T19:13:46.883Z,67.26
2023-03-02T19:17:47.652Z,67.26
2023-03-02T19:21:51.027Z,67.15
2023-03-02T19:25:52.032Z,66.75
2023-03-02T19:29:52.540Z,66.53
2023-03-02T19:33:53.869Z,66.83
2023-03-02T19:37:57.461Z,67.13
2023-03-02T19:41:58.089Z,66.05
2023-03-02T19:45:58.830Z,65.97
2023-03-02T19:49:59.229Z,66.32
2023-03-02T19:54:04.212Z,66.04
2023-03-02T19:58:05.227Z,65.65
2023-03-02T20:02:05.881Z,65.73
2023-03-02T20:06:07.073Z,65.42
2023-03-02T20:10:14.872Z,65.47
2023-03-02T20:14:31.366Z,65.97
2023-03-02T20:18:35.221Z,66.06
2023-03-02T20:22:35.734Z,66.12
2023-03-02T20:26:38.946Z,66.07
2023-03-02T20:30:44.078Z,65.70
2023-03-02T20:34:46.569Z,65.10
2023-03-02T20:38:52.552Z,65.02
2023-03-02T20:42:56.613Z,65.75
2023-03-02T20:47:01.397Z,66.50
2023-03-02T20:51:03.324Z,67.12
2023-03-02T20:55:04.126Z,67.03
2023-03-02T20:59:08.520Z,67.11
2023-03-02T21:03:11.412Z,67.29
2023-03-02T21:07:16.688Z,67.56
2023-03-02T21:11:21.838Z,68.34
2023-03-02T21:15:30.564Z,68.86
2023-03-02T21:19:31.453Z,69.07
2023-03-02T21:23:32.676Z,69.50
2023-03-02T21:27:33.307Z,69.37
2023-03-02T21:31:36.992Z,70.26
2023-03-02T21:35:38.679Z,70.34
2023-03-02T21:39:39.844Z,71.08
2023-03-02T21:43:40.840Z,70.81
2023-03-02T21:47:46.178Z,71.11
2023-03-02T21:51:49.589Z,71.17
2023-03-02T21:55:53.775Z,71.26
2023-03-02T21:59:54.915Z,71.02
2023-03-02T22:03:58.754Z,70.58
2023-03-02T22:08:00.158Z,70.74
2023-03-02T22:12:00.922Z,69.62
2023-03-02T22:16:16.659Z,69.99
2023-03-02T22:20:23.106Z,70.35
2023-03-02T22:24:28.965Z,70.65
2023-03-02T22:28:31.256Z,71.07
2023-03-02T22:32:38.277Z,70.20
2023-03-02T22:36:41.313Z,70.25
2023-03-02T22:40:43.079Z,70.34
2023-03-02T22:44:44.124Z,69.99
2023-03-02T22:48:47.675Z,70.92
2023-03-02T22:52:50.993Z,70.83
2023-03-02T22:56:57.086Z,70.61
2023-03-02T23:00:58.694Z,70.61
2023-03-02T23:04:59.347Z,70.58
2023-03-02T23:09:06.548Z,70.51
2023-03-02T23:13:07.613Z,70.72
2023-03-02T23:17:21.897Z,70.48
2023-03-02T23:21:28.425Z,70.73
2023-03-02T23:25:31.973Z,70.74
2023-03-02T23:29:32.842Z,71.69
2023-03-02T23:33:33.652Z,72.01
2023-03-02T23:37:34.205Z,72.20
2023-03-02T23:41:38.752Z,73.39
2023-03-02T23:45:41.934Z,73.14
2023-03-02T23:49:42.715Z,73.84
2023-03-02T23:53:43.610Z,73.59
2023-03-02T23:57:47.086Z,74.32
